Accueil
METAR-TAF:

METAR-TAF

Aéroports :

Buochs, Suisse

latitude: 46-58-28N, longitude: 8-23-49E, altitude: 449 m

Observation

Le bulletin a été fait il y a 43 minutes, à 15:20 UTC
Vent 2 kt de direction variable
Température 17°C
Humidité 72%
Pression 1020 hPa
Visibilité 10 km ou plus
Ciel couvert à une hauteur de 3200 ft

METAR: LSZC 281520Z AUTO VRB02KT 9999 OVC032 17/12 Q1020

Heure: 18:03 (16:03 UTC)

Prévision

Le bulletin a été fait il y a 1 heure et 38 minutes, à 14:25 UTC
Prévision valable du 28 à 15 UTC au 28 à 24 UTC
Vent 2 kt de direction variable
Visibilité 10 km ou plus
Nuages épars à une hauteur de 2000 ft
Nuages fragmentés à une hauteur de 3500 ft
Probabilité 40% :
Temporairement
du 28 à 19 UTC au 28 à 24 UTC
Nuages épars à une hauteur de 5000 ft, Cumulus congestus.
averses de pluie

TAF: LSZC 281425Z 2815/2824 VRB02KT 9999 SCT020 BKN035 PROB40 TEMPO 2819/2824 SHRA SCT050TCU

Observations et prévisions météorologiques de plus de 4000 aéroports (messages METAR et TAF).

Les stations disponibles sont représentées par des disques jaunes et rouges sur la carte.

Passer la souris dessus pour voir le nom de la station.

Cliquer dessus pour voir les observations et prévisions météorologiques.

Pour changer de carte: cliquez sur les boutons verts avec une croix noire pour zoomer, sur le bouton vert avec un tiret pour effectuer un zoom arrière, ou sur les flèches vertes pour les cartes adjacentes.


METAR-TAF: